This is the latest recevied weather packets stored in our database for station/object N8WJW. If no packets are shown the sender has not sent any weather packets the latest 1 day(s).
| Time | Temp. | Humidity | Pressure | Rain* | Wind** | Luminosity | Snow |
|---|---|---|---|---|---|---|---|
| 1778034457 | 8.89° C | 99% | 1009.8 hPa | 0 mm | - | 0 W/m² | - |
| 1778034155 | 8.89° C | 99% | 1010 hPa | 0 mm | - | 0 W/m² | - |
| 1778033853 | 8.89° C | 99% | 1009.9 hPa | 0 mm | - | 0 W/m² | - |
| 1778033549 | 8.89° C | 99% | 1010 hPa | 0 mm | - | 0 W/m² | - |
| 1778033246 | 8.89° C | 99% | 1010 hPa | 0 mm | - | 0 W/m² | - |
| 1778032642 | 8.89° C | 99% | 1009.9 hPa | 0 mm | - | 0 W/m² | - |
| 1778032339 | 8.89° C | 99% | 1009.8 hPa | 0 mm | - | 0 W/m² | - |
| 1778032036 | 8.89° C | 99% | 1010.1 hPa | 0 mm | - | 0 W/m² | - |
| 1778031732 | 8.89° C | 99% | 1009.8 hPa | 0 mm | - | 0 W/m² | - |
| 1778030217 | 8.89° C | 99% | 1009.7 hPa | 0 mm | - | 0 W/m² | - |
| 1778029913 | 8.89° C | 99% | 1009.5 hPa | 0 mm | - | 0 W/m² | - |
| 1778029612 | 8.89° C | 99% | 1009.8 hPa | 0 mm | - | 0 W/m² | - |
| 1778029005 | 8.89° C | 99% | 1009.6 hPa | 0 mm | - | 0 W/m² | - |
| 1778028702 | 8.89° C | 99% | 1009.4 hPa | 0 mm | - | 0 W/m² | - |
| 1778028398 | 8.89° C | 99% | 1009.3 hPa | 0 mm | - | 0 W/m² | - |
| 1778028096 | 8.89° C | 99% | 1009.4 hPa | 0 mm | - | 0 W/m² | - |
| 1778027792 | 8.89° C | 99% | 1009.4 hPa | 0 mm | - | 0 W/m² | - |
| 1778027488 | 8.89° C | 99% | 1009.2 hPa | 0 mm | - | 0 W/m² | - |
| 1778027179 | 8.89° C | 99% | 1009.3 hPa | 0 mm | - | 1 W/m² | - |
| 1778026875 | 8.89° C | 99% | 1009.4 hPa | 0.51 mm | - | 1 W/m² | - |
| 1778026571 | 8.89° C | 99% | 1008.3 hPa | 0.51 mm | - | 2 W/m² | - |
| 1778025058 | 8.89° C | 99% | 1009.8 hPa | 0 mm | - | 7 W/m² | - |
| 1778022938 | 8.89° C | 99% | 1009.6 hPa | 0 mm | - | 6 W/m² | - |
| 1778022637 | 8.89° C | 99% | 1009.6 hPa | 0 mm | - | 8 W/m² | - |
| 1778022334 | 8.89° C | 99% | 1009.6 hPa | 0 mm | - | 6 W/m² | - |
* Rain latest hour (hover to see other rain measurements)
** Current wind speed in m/s (hover to see current wind gust speed)